< < Back
Terminal Aerodrome Forecast


Current Version              Previous Versions:   1  2  3  4  5  6  7  8  9  

Terminal Aerodrome Forecast

915
FTUS42 KTAE 281120
TAFABY
TAF
KABY 281120Z 2812/2912 30005KT P6SM SKC
     FM281500 31008G13KT P6SM SCT250
     FM290400 32004KT P6SM BKN100 BKN250
     FM290700 35002KT P6SM SKC=



Latest METAR

343
SAUS70 KWBC 291700 RRA
MTRABY
METAR KABY 291653Z 08005KT 10SM CLR 14/M07 A3042 RMK AO2 SLP300
T01441072


USA.gov is the U.S. government's official web portal to all federal, state and local government web resources and services.